Weather at Ein Vered Airfield

Public forecast

Using degrees Celsius for public forecast. Weather courtesy of forecast.io.

Closest aviation weather report (METAR) to Ein Vered Airfield

Closest report is Ben Gurion International Airport, 15.5 nm (28.7 km) SSW.

2024/06/17 02:50 (retrieved 33 minutes ago)

LLBG 170250Z 16005KT 9999 SCT025 24/20 Q1010 NOSIG

Closest aviation forecast (TAF) to Ein Vered Airfield

Forecast is more than 6 hours old.

Closest forecast is Beirut Rafic Hariri International Airport, 97.3 nm (180.3 km) NNE.

2024/06/16 21:00 (retrieved 6 hours ago)

TAF EDLW 162151Z 1621/1718 CNL TAF OLBA 162200Z 1700/1806 16004KT 8000 SCT026 BECMG 1706/1708 22010KT BECMG 1720/1722 14006KT NSC